Aleppo, Pennsylvania
Current Conditions -  °F | °C
As of 12:55 PM on Monday 24 Nov 2014 (Local Time) from KAFJ Reporting Station
Broken Clouds Broken Clouds  
Wind Chill: 19°   Ceiling: 7000
Heat Index: 19°   Visibility: 10mi
Dew Point:   Wind: 18mph
Humidity: 49%   Direction: 220°SW
Pressure: 29.46"   Gusts: 41mph
Location:  39.82°N, 80.45°W
Report Text: KAFJ 241755Z 22016G36KT 10SM SCT065 BKN070 19/08 A2946 RMK AO1 10200 20140 54000
Loading
Personal Weather Stations






























Interactive Weather Map New forecast layout! Learn more

10-Day Weather Forecast

Advertisements
Track Severe Weather on mobile